Paradise Valley, Canada
Current Conditions -  °F | °C
As of 1:00 AM on Thursday 23 Oct 2014 (Local Time) from CYLL Reporting Station
Few Clouds Few Clouds  
Wind Chill: 39°   Ceiling: Unl
Heat Index: 45°   Visibility: 9mi
Dew Point: 34°   Wind: 10mph
Humidity: 66%   Direction: 130°SE
Pressure: 29.6"   Gusts: NA
Location:  53.03°N, 110.33°W
Report Text: CYLL 230700Z AUTO 13009KT 9SM FEW200 07/01 A2960 RMK SLP036
Loading
Personal Weather Stations






























Interactive Weather Map
Tropical Storm Tracking
New forecast layout! Learn more

10-Day Weather Forecast

Advertisements
Track Severe Weather on mobile